createdAt,value
2018-04-13T03:22:12.457Z,10.83
2018-04-13T03:23:12.228Z,10.74
2018-04-13T03:24:12.256Z,10.84
2018-04-13T03:25:12.180Z,11.01
2018-04-13T03:26:12.233Z,11.10
2018-04-13T03:27:12.154Z,11.09
2018-04-13T03:28:12.190Z,10.86
2018-04-13T03:29:12.125Z,10.96
2018-04-13T03:30:12.124Z,10.83
2018-04-13T03:31:12.122Z,10.66
2018-04-13T03:32:12.107Z,10.74
2018-04-13T03:33:12.108Z,10.80
2018-04-13T03:34:12.284Z,10.83
2018-04-13T03:35:12.098Z,10.76
2018-04-13T03:36:20.787Z,10.86
2018-04-13T03:38:05.601Z,10.88
2018-04-13T03:39:05.538Z,10.71
2018-04-13T03:40:05.544Z,11.01
2018-04-13T03:41:05.578Z,11.32
2018-04-13T03:42:05.525Z,10.71
2018-04-13T03:43:05.488Z,10.83
2018-04-13T03:44:05.486Z,10.70
2018-04-13T03:45:05.469Z,10.70
2018-04-13T03:46:05.457Z,10.73
2018-04-13T03:47:05.515Z,10.88
2018-04-13T03:48:05.447Z,11.03
2018-04-13T03:49:05.485Z,10.84
2018-04-13T03:50:05.466Z,10.63
2018-04-13T03:51:05.461Z,10.81
2018-04-13T03:52:05.511Z,10.76
2018-04-13T03:53:05.425Z,10.73
2018-04-13T03:54:05.432Z,10.80
2018-04-13T03:55:05.429Z,10.60
2018-04-13T03:56:05.461Z,10.71
2018-04-13T03:57:05.419Z,10.76
2018-04-13T03:58:05.447Z,10.73
2018-04-13T03:59:05.405Z,10.71
2018-04-13T04:00:14.227Z,10.60
2018-04-13T04:01:58.894Z,10.52
2018-04-13T04:02:58.804Z,10.58
2018-04-13T04:03:58.828Z,10.71
2018-04-13T04:04:58.831Z,10.71
2018-04-13T04:05:58.791Z,10.74
2018-04-13T04:06:58.807Z,10.81
2018-04-13T04:07:58.804Z,10.81
2018-04-13T04:08:58.755Z,10.74
2018-04-13T04:09:58.754Z,10.60
2018-04-13T04:10:58.796Z,10.77
2018-04-13T04:11:58.790Z,10.71
2018-04-13T04:12:58.739Z,10.60
2018-04-13T04:13:58.749Z,10.63
2018-04-13T04:14:58.798Z,10.60
2018-04-13T04:15:58.737Z,10.70
2018-04-13T04:16:58.724Z,10.55
2018-04-13T04:17:58.727Z,10.74
2018-04-13T04:18:58.793Z,10.56
2018-04-13T04:19:58.727Z,10.56
2018-04-13T04:20:58.733Z,10.65
2018-04-13T04:21:58.740Z,10.53
2018-04-13T04:22:58.707Z,10.56
2018-04-13T04:23:58.744Z,10.68
2018-04-13T04:24:58.697Z,10.65
2018-04-13T04:25:58.728Z,10.60
2018-04-13T04:26:58.690Z,10.60
2018-04-13T04:27:58.700Z,10.68
2018-04-13T04:28:58.685Z,10.65
2018-04-13T04:29:58.693Z,10.65
2018-04-13T04:30:58.709Z,10.59
2018-04-13T04:31:58.681Z,10.81
2018-04-13T04:32:58.671Z,11.27
2018-04-13T04:33:58.713Z,11.24
2018-04-13T04:34:58.664Z,11.07
2018-04-13T04:35:58.690Z,10.89
2018-04-13T04:36:58.658Z,10.98
2018-04-13T04:37:58.653Z,10.86
2018-04-13T04:38:58.651Z,10.89
2018-04-13T04:39:58.666Z,10.81
2018-04-13T04:40:58.662Z,10.89
2018-04-13T04:41:58.642Z,11.09
2018-04-13T04:42:58.637Z,11.11
2018-04-13T04:43:58.629Z,11.01
2018-04-13T04:44:58.652Z,10.95
2018-04-13T04:45:58.626Z,10.95
2018-04-13T04:46:58.622Z,11.25
2018-04-13T04:47:58.617Z,11.10
2018-04-13T04:49:09.079Z,11.07
2018-04-13T04:50:52.082Z,11.01
2018-04-13T04:51:52.084Z,11.03
2018-04-13T04:52:52.024Z,10.98
2018-04-13T04:53:52.045Z,11.02
2018-04-13T04:54:52.052Z,10.96
2018-04-13T04:55:52.002Z,10.94
2018-04-13T04:56:51.975Z,11.39
2018-04-13T04:57:51.986Z,11.20
2018-04-13T04:58:51.969Z,11.09
2018-04-13T04:59:51.990Z,11.17
2018-04-13T05:00:51.984Z,11.02
2018-04-13T05:01:52.049Z,11.06
2018-04-13T05:02:51.973Z,10.99
2018-04-13T05:03:52.107Z,11.13
2018-04-13T05:04:52.000Z,11.11
2018-04-13T05:05:52.028Z,11.38
2018-04-13T05:06:52.005Z,11.36
2018-04-13T05:07:51.984Z,11.24
2018-04-13T05:08:51.942Z,11.39
2018-04-13T05:09:52.001Z,11.36
2018-04-13T05:10:51.949Z,11.28
2018-04-13T05:11:51.985Z,11.50
2018-04-13T05:12:51.920Z,11.65
2018-04-13T05:13:51.930Z,11.64
2018-04-13T05:14:51.973Z,11.72
2018-04-13T05:15:51.996Z,11.74
2018-04-13T05:16:51.937Z,11.70
2018-04-13T05:17:51.967Z,11.70
2018-04-13T05:18:51.901Z,11.75
2018-04-13T05:19:51.907Z,11.49
2018-04-13T05:20:51.916Z,11.49
2018-04-13T05:21:51.914Z,11.49
2018-04-13T05:22:51.897Z,11.71
2018-04-13T05:23:51.905Z,11.62
2018-04-13T05:24:51.951Z,11.71
2018-04-13T05:25:51.916Z,11.71
2018-04-13T05:26:51.910Z,11.68
2018-04-13T05:27:51.912Z,11.75
2018-04-13T05:28:51.871Z,11.86
2018-04-13T05:29:51.963Z,11.85
2018-04-13T05:30:51.890Z,11.82
2018-04-13T05:31:51.898Z,11.83
2018-04-13T05:32:51.948Z,11.72
2018-04-13T05:33:51.860Z,11.83
2018-04-13T05:34:51.921Z,11.68
2018-04-13T05:35:51.877Z,11.59
2018-04-13T05:36:51.853Z,11.82
2018-04-13T05:37:51.870Z,11.67
2018-04-13T05:38:51.887Z,11.82
2018-04-13T05:39:51.844Z,11.77
2018-04-13T05:40:51.898Z,11.67
2018-04-13T05:41:51.860Z,11.72
2018-04-13T05:42:51.862Z,11.93
2018-04-13T05:43:51.847Z,11.90
2018-04-13T05:44:51.864Z,11.75
2018-04-13T05:45:51.875Z,11.75
2018-04-13T05:46:51.855Z,11.70
2018-04-13T05:47:52.719Z,11.68
2018-04-13T05:48:51.956Z,11.90
2018-04-13T05:49:51.817Z,11.87
2018-04-13T05:50:51.801Z,11.78
2018-04-13T05:51:52.704Z,11.77
2018-04-13T05:52:51.845Z,11.86
2018-04-13T05:53:51.805Z,11.74
2018-04-13T05:54:51.828Z,11.80
2018-04-13T05:56:01.321Z,11.80
2018-04-13T05:57:45.313Z,11.86
2018-04-13T06:00:07.524Z,11.72
2018-04-13T06:01:07.347Z,11.78
2018-04-13T06:02:07.231Z,11.65
2018-04-13T06:03:07.431Z,11.80
2018-04-13T06:04:07.274Z,11.99
2018-04-13T06:05:07.224Z,11.80
2018-04-13T06:06:07.218Z,11.87
2018-04-13T06:07:07.187Z,12.01
2018-04-13T06:08:07.180Z,11.93
2018-04-13T06:09:07.230Z,11.93
2018-04-13T06:10:07.236Z,11.85
2018-04-13T06:11:07.177Z,11.96
2018-04-13T06:12:07.197Z,11.93
2018-04-13T06:13:07.201Z,11.97
2018-04-13T06:14:07.159Z,11.89
2018-04-13T06:15:07.188Z,11.83
2018-04-13T06:16:07.154Z,11.97
2018-04-13T06:17:07.187Z,12.08
2018-04-13T06:18:07.159Z,11.96
2018-04-13T06:19:07.177Z,12.01
2018-04-13T06:20:07.181Z,11.94
2018-04-13T06:21:07.135Z,11.90
2018-04-13T06:22:07.143Z,11.90
2018-04-13T06:23:07.155Z,11.96
2018-04-13T06:24:07.142Z,11.94
2018-04-13T06:25:07.142Z,11.99
2018-04-13T06:26:07.122Z,12.01
2018-04-13T06:27:07.119Z,12.11
2018-04-13T06:28:07.124Z,12.13
2018-04-13T06:29:07.110Z,12.13
2018-04-13T06:30:07.113Z,12.09
2018-04-13T06:31:07.132Z,12.12
2018-04-13T06:32:07.107Z,12.05
2018-04-13T06:33:07.106Z,12.08
2018-04-13T06:34:07.127Z,12.19
2018-04-13T06:35:07.095Z,12.02
2018-04-13T06:36:07.081Z,12.16
2018-04-13T06:37:07.168Z,12.15
2018-04-13T06:38:07.138Z,12.20
2018-04-13T06:39:07.079Z,12.19
2018-04-13T06:40:07.075Z,12.13
2018-04-13T06:41:07.071Z,12.26
2018-04-13T06:42:07.068Z,12.15
2018-04-13T06:43:07.073Z,12.20
2018-04-13T06:44:07.081Z,12.21
2018-04-13T06:45:07.077Z,12.15
2018-04-13T06:46:07.056Z,12.16
2018-04-13T06:47:07.048Z,12.16
2018-04-13T06:48:07.063Z,12.23
2018-04-13T06:49:07.042Z,12.33
2018-04-13T06:50:07.038Z,12.42
2018-04-13T06:51:07.047Z,12.42
2018-04-13T06:52:07.049Z,12.46
2018-04-13T06:53:07.062Z,12.37
2018-04-13T06:54:07.076Z,12.51
2018-04-13T06:55:07.084Z,12.44
2018-04-13T06:56:07.057Z,12.33
2018-04-13T06:57:07.023Z,12.44
2018-04-13T06:58:07.016Z,12.39
2018-04-13T06:59:07.010Z,12.51
2018-04-13T07:00:07.020Z,12.41
2018-04-13T07:01:07.008Z,12.48
2018-04-13T07:02:07.006Z,12.52
2018-04-13T07:03:07.016Z,12.52
2018-04-13T07:04:07.000Z,12.62
2018-04-13T07:05:06.996Z,12.51
2018-04-13T07:06:07.023Z,12.54
2018-04-13T07:07:06.988Z,12.64
2018-04-13T07:08:07.003Z,12.59
2018-04-13T07:09:06.981Z,12.52
2018-04-13T07:10:06.977Z,12.54
2018-04-13T07:11:06.978Z,12.63
2018-04-13T07:12:06.972Z,12.60
2018-04-13T07:13:06.991Z,12.62
2018-04-13T07:14:06.982Z,12.57
2018-04-13T07:15:06.990Z,12.62
2018-04-13T07:16:06.961Z,12.56
2018-04-13T07:17:06.961Z,12.60
2018-04-13T07:18:06.961Z,12.63
2018-04-13T07:19:06.953Z,12.60
2018-04-13T07:20:06.957Z,12.64
2018-04-13T07:21:06.951Z,12.63
2018-04-13T07:22:06.939Z,12.64
2018-04-13T07:23:06.960Z,12.67
2018-04-13T07:24:06.940Z,12.67
2018-04-13T07:25:06.945Z,12.74
2018-04-13T07:26:06.947Z,12.78
2018-04-13T07:27:06.967Z,12.67
2018-04-13T07:28:06.920Z,12.67
2018-04-13T07:29:06.977Z,12.77
2018-04-13T07:30:06.921Z,12.78
2018-04-13T07:31:06.917Z,12.78
2018-04-13T07:32:06.916Z,12.82
2018-04-13T07:33:07.411Z,12.78
2018-04-13T07:34:07.088Z,12.81
2018-04-13T07:35:07.163Z,12.84
2018-04-13T07:36:07.450Z,12.95
2018-04-13T07:37:06.922Z,12.95
2018-04-13T07:38:06.950Z,12.81
2018-04-13T07:39:06.886Z,12.95
2018-04-13T07:40:06.887Z,12.96
2018-04-13T07:41:14.110Z,12.85
2018-04-13T07:43:00.316Z,12.87
2018-04-13T07:44:00.268Z,13.00
2018-04-13T07:45:00.343Z,13.00
2018-04-13T07:46:00.343Z,12.92
2018-04-13T07:47:00.265Z,13.00
2018-04-13T07:48:00.289Z,12.92
2018-04-13T07:49:00.272Z,12.95
2018-04-13T07:50:00.268Z,13.00
2018-04-13T07:51:00.266Z,13.02
2018-04-13T07:52:00.248Z,12.95
2018-04-13T07:53:00.246Z,12.99
2018-04-13T07:54:00.321Z,12.92
2018-04-13T07:55:00.254Z,12.96
2018-04-13T07:56:00.245Z,13.00
2018-04-13T07:57:00.226Z,12.95
2018-04-13T07:58:00.232Z,12.99
2018-04-13T07:59:00.554Z,12.97
2018-04-13T08:00:00.236Z,12.89
2018-04-13T08:01:00.239Z,13.00
2018-04-13T08:02:00.217Z,12.99
2018-04-13T08:03:00.242Z,12.89
2018-04-13T08:04:00.204Z,12.81
2018-04-13T08:05:00.212Z,12.84
2018-04-13T08:06:00.212Z,12.77
2018-04-13T08:07:00.202Z,12.74
2018-04-13T08:08:00.233Z,12.71
2018-04-13T08:09:00.201Z,12.69
2018-04-13T08:10:00.217Z,12.62
2018-04-13T08:11:08.875Z,12.67
2018-04-13T08:12:53.603Z,12.63
2018-04-13T08:14:02.514Z,12.63
2018-04-13T08:15:48.648Z,12.66
2018-04-13T08:18:10.198Z,12.60
2018-04-13T08:20:32.347Z,12.64
2018-04-13T08:21:32.192Z,12.67
2018-04-13T08:22:32.239Z,12.59
2018-04-13T08:23:32.225Z,12.64
2018-04-13T08:24:32.201Z,12.60
2018-04-13T08:25:32.198Z,12.63
2018-04-13T08:26:32.187Z,12.71
2018-04-13T08:27:32.169Z,12.74
2018-04-13T08:28:32.214Z,12.62
2018-04-13T08:29:32.181Z,12.71
2018-04-13T08:30:32.173Z,12.64
2018-04-13T08:31:32.156Z,12.66
2018-04-13T08:32:32.148Z,12.63
2018-04-13T08:33:32.148Z,12.66
2018-04-13T08:34:32.152Z,12.69
2018-04-13T08:35:32.227Z,12.69
2018-04-13T08:36:32.159Z,12.69
2018-04-13T08:37:32.162Z,12.71
2018-04-13T08:38:32.135Z,12.71
2018-04-13T08:39:32.144Z,12.70
2018-04-13T08:40:32.132Z,12.70
2018-04-13T08:41:32.159Z,12.60
2018-04-13T08:42:32.201Z,12.69
2018-04-13T08:43:32.127Z,12.64
2018-04-13T08:44:32.112Z,12.71
2018-04-13T08:45:32.116Z,12.71
2018-04-13T08:46:32.125Z,12.74
2018-04-13T08:47:32.110Z,12.66
2018-04-13T08:48:32.106Z,12.67
2018-04-13T08:49:32.158Z,12.77
2018-04-13T08:50:32.117Z,12.77
2018-04-13T08:51:32.136Z,12.74
2018-04-13T08:52:32.123Z,12.69
2018-04-13T08:53:32.092Z,12.75
2018-04-13T08:54:32.185Z,12.75
2018-04-13T08:55:32.120Z,12.71
2018-04-13T08:56:32.080Z,12.69
2018-04-13T08:57:32.082Z,12.75
2018-04-13T08:58:32.093Z,12.69
2018-04-13T08:59:32.077Z,12.74
2018-04-13T09:00:32.080Z,12.77
2018-04-13T09:01:32.117Z,12.77
2018-04-13T09:02:32.082Z,12.87
2018-04-13T09:03:32.071Z,12.74
2018-04-13T09:04:32.107Z,12.84
2018-04-13T09:05:32.055Z,12.74
2018-04-13T09:06:32.112Z,12.67
2018-04-13T09:07:32.082Z,12.67
2018-04-13T09:08:32.054Z,12.64
2018-04-13T09:09:32.058Z,12.64
2018-04-13T09:10:32.045Z,12.75
2018-04-13T09:11:32.087Z,12.75
2018-04-13T09:12:32.097Z,12.70
2018-04-13T09:13:32.034Z,12.70
2018-04-13T09:14:32.083Z,12.69
2018-04-13T09:15:32.071Z,12.67
2018-04-13T09:16:32.029Z,12.71
2018-04-13T09:17:32.024Z,12.75
2018-04-13T09:18:32.029Z,12.81
2018-04-13T09:19:32.020Z,12.75
2018-04-13T09:20:32.041Z,12.79
2018-04-13T09:21:32.049Z,12.64
2018-04-13T09:22:32.068Z,12.81
2018-04-13T09:23:32.068Z,12.67
2018-04-13T09:24:32.026Z,12.75
2018-04-13T09:25:32.003Z,12.84
2018-04-13T09:26:32.002Z,12.82
2018-04-13T09:27:32.003Z,12.69
2018-04-13T09:28:32.028Z,12.82
2018-04-13T09:29:31.997Z,12.79
2018-04-13T09:30:32.036Z,12.81
2018-04-13T09:31:32.005Z,12.82
2018-04-13T09:32:32.022Z,12.85
2018-04-13T09:33:32.057Z,12.81
2018-04-13T09:34:32.007Z,12.82
2018-04-13T09:35:32.051Z,12.84
2018-04-13T09:36:32.008Z,12.85
2018-04-13T09:37:32.155Z,12.75
2018-04-13T09:38:31.971Z,12.78
2018-04-13T09:39:31.977Z,12.70
2018-04-13T09:40:31.974Z,12.74
2018-04-13T09:41:31.966Z,12.75
2018-04-13T09:42:31.977Z,12.97
2018-04-13T09:43:31.995Z,12.99
2018-04-13T09:44:31.994Z,12.92
2018-04-13T09:45:32.015Z,13.00
2018-04-13T09:46:31.988Z,12.97
2018-04-13T09:47:31.992Z,12.93
2018-04-13T09:48:31.957Z,12.95
2018-04-13T09:49:31.979Z,12.99
2018-04-13T09:50:31.945Z,12.92
2018-04-13T09:51:31.952Z,12.89
2018-04-13T09:52:31.937Z,12.79
2018-04-13T09:53:31.933Z,12.89
2018-04-13T09:54:31.943Z,12.84
2018-04-13T09:55:31.938Z,12.89
2018-04-13T09:56:31.934Z,12.95
2018-04-13T09:57:31.961Z,12.79
2018-04-13T09:58:31.925Z,12.88
2018-04-13T09:59:31.932Z,12.81
2018-04-13T10:00:31.921Z,12.82
2018-04-13T10:01:31.921Z,12.88
2018-04-13T10:02:31.917Z,12.96
2018-04-13T10:03:31.915Z,12.81
2018-04-13T10:04:31.913Z,12.79
2018-04-13T10:05:31.916Z,12.92
2018-04-13T10:06:31.922Z,12.88
2018-04-13T10:07:40.601Z,12.81
2018-04-13T10:09:25.318Z,12.77
2018-04-13T10:10:25.301Z,12.92
2018-04-13T10:11:25.297Z,12.81
2018-04-13T10:12:25.313Z,12.70
2018-04-13T10:13:25.292Z,12.75
2018-04-13T10:14:25.318Z,12.79
2018-04-13T10:15:25.290Z,12.82
2018-04-13T10:16:25.325Z,12.82
2018-04-13T10:17:25.315Z,12.96
2018-04-13T10:18:25.284Z,12.78
2018-04-13T10:19:25.279Z,12.79
2018-04-13T10:20:25.278Z,12.70
2018-04-13T10:21:25.295Z,12.64
2018-04-13T10:22:25.300Z,12.74
2018-04-13T10:23:25.299Z,12.71
2018-04-13T10:24:25.289Z,12.64
2018-04-13T10:25:25.460Z,12.66
2018-04-13T10:26:25.287Z,12.69
2018-04-13T10:27:25.264Z,12.59
2018-04-13T10:28:25.259Z,12.70
2018-04-13T10:29:25.265Z,12.67
2018-04-13T10:30:25.257Z,12.62
2018-04-13T10:31:25.254Z,12.66
2018-04-13T10:32:25.254Z,12.77
2018-04-13T10:33:25.281Z,12.71
2018-04-13T10:34:25.253Z,12.64
2018-04-13T10:35:25.251Z,12.62
2018-04-13T10:36:25.246Z,12.60
2018-04-13T10:37:25.258Z,12.70
2018-04-13T10:38:25.265Z,12.70
2018-04-13T10:39:25.268Z,12.75
2018-04-13T10:40:33.980Z,12.66
2018-04-13T10:42:18.679Z,12.67
2018-04-13T10:43:18.648Z,12.46
2018-04-13T10:45:12.050Z,12.63
2018-04-13T10:46:12.034Z,12.70
2018-04-13T10:47:12.065Z,12.79
2018-04-13T10:48:12.055Z,12.67
2018-04-13T10:49:12.039Z,12.69
2018-04-13T10:50:12.040Z,12.69
2018-04-13T10:51:12.040Z,12.70
2018-04-13T10:52:12.120Z,12.85
2018-04-13T10:53:12.015Z,12.63
2018-04-13T10:54:12.037Z,12.60
2018-04-13T10:55:12.009Z,12.56
2018-04-13T10:56:12.008Z,12.49
2018-04-13T10:57:12.008Z,12.60
2018-04-13T10:58:12.005Z,12.52
2018-04-13T10:59:12.009Z,12.54
2018-04-13T11:00:12.031Z,12.59
2018-04-13T11:01:12.015Z,12.69
2018-04-13T11:02:12.029Z,12.88
2018-04-13T11:03:12.017Z,12.92
2018-04-13T11:04:12.005Z,12.95
2018-04-13T11:05:12.002Z,12.96
2018-04-13T11:06:12.092Z,12.95
2018-04-13T11:07:11.992Z,12.95
2018-04-13T11:08:11.986Z,13.00
2018-04-13T11:09:12.011Z,12.99
2018-04-13T11:10:11.984Z,12.89
2018-04-13T11:11:12.031Z,12.71
2018-04-13T11:12:12.056Z,12.81
2018-04-13T11:13:12.009Z,12.85
2018-04-13T11:14:12.060Z,13.09
2018-04-13T11:15:12.058Z,12.99
2018-04-13T11:16:11.996Z,13.18
2018-04-13T11:17:11.968Z,13.18
2018-04-13T11:18:11.965Z,13.20
2018-04-13T11:19:12.030Z,13.12
2018-04-13T11:20:12.021Z,12.93
2018-04-13T11:21:12.010Z,12.97
2018-04-13T11:22:11.984Z,13.03
2018-04-13T11:23:11.989Z,13.07
2018-04-13T11:24:11.951Z,13.07
2018-04-13T11:25:12.002Z,12.99
2018-04-13T11:26:11.969Z,13.04
2018-04-13T11:27:11.981Z,12.99
2018-04-13T11:28:11.988Z,13.11
2018-04-13T11:29:11.967Z,12.97
2018-04-13T11:30:11.979Z,13.00
2018-04-13T11:31:11.954Z,12.89
2018-04-13T11:32:11.929Z,12.93
2018-04-13T11:33:11.950Z,12.97
2018-04-13T11:34:11.965Z,13.11
2018-04-13T11:35:11.930Z,13.12
2018-04-13T11:36:11.949Z,12.95
2018-04-13T11:37:11.992Z,13.14
2018-04-13T11:38:11.922Z,13.22
2018-04-13T11:39:11.927Z,13.24
2018-04-13T11:40:11.925Z,13.15
2018-04-13T11:41:11.917Z,12.99
2018-04-13T11:42:11.920Z,12.93
2018-04-13T11:43:12.000Z,13.04
2018-04-13T11:44:11.910Z,13.09
2018-04-13T11:45:11.931Z,12.99
2018-04-13T11:46:11.903Z,12.96
2018-04-13T11:47:11.907Z,12.96
2018-04-13T11:48:11.912Z,12.84
2018-04-13T11:49:11.927Z,12.84
2018-04-13T11:50:11.903Z,12.81
2018-04-13T11:51:11.904Z,12.84
2018-04-13T11:52:11.890Z,12.97
2018-04-13T11:53:11.934Z,12.99
2018-04-13T11:54:11.924Z,12.92
2018-04-13T11:55:11.909Z,12.95
2018-04-13T11:56:11.999Z,12.79
2018-04-13T11:57:11.982Z,12.82
2018-04-13T11:58:11.882Z,13.09
2018-04-13T11:59:11.897Z,13.17
2018-04-13T12:00:11.889Z,12.99
2018-04-13T12:01:11.909Z,13.11
2018-04-13T12:02:11.877Z,13.02
2018-04-13T12:03:11.877Z,12.92
2018-04-13T12:04:11.865Z,13.04
2018-04-13T12:05:11.871Z,13.00
2018-04-13T12:06:11.862Z,13.14
2018-04-13T12:07:11.865Z,12.84
2018-04-13T12:08:11.869Z,12.85
2018-04-13T12:09:11.900Z,12.87
2018-04-13T12:10:11.901Z,12.95
2018-04-13T12:11:11.872Z,12.88
2018-04-13T12:12:11.868Z,13.09
2018-04-13T12:13:11.859Z,12.99
2018-04-13T12:14:11.897Z,13.20
2018-04-13T12:15:11.847Z,13.12
2018-04-13T12:16:11.861Z,13.11
2018-04-13T12:17:11.845Z,13.06
2018-04-13T12:18:11.853Z,12.97
2018-04-13T12:19:11.852Z,12.97
2018-04-13T12:20:11.875Z,13.00
2018-04-13T12:21:11.843Z,13.00
2018-04-13T12:22:11.858Z,13.30
2018-04-13T12:23:11.847Z,13.09
2018-04-13T12:24:11.833Z,12.92
2018-04-13T12:25:11.859Z,13.12
2018-04-13T12:26:11.854Z,13.15
2018-04-13T12:27:11.849Z,13.24
2018-04-13T12:28:11.838Z,13.24
2018-04-13T12:29:11.827Z,13.12
2018-04-13T12:30:11.823Z,12.99
2018-04-13T12:31:11.821Z,13.09
2018-04-13T12:32:11.825Z,12.99
2018-04-13T12:33:11.841Z,13.09
2018-04-13T12:34:11.815Z,12.95
2018-04-13T12:35:11.818Z,12.97
2018-04-13T12:36:11.985Z,13.04
2018-04-13T12:37:11.859Z,13.17
2018-04-13T12:38:11.833Z,13.15
2018-04-13T12:39:11.809Z,13.14
2018-04-13T12:40:11.826Z,13.18
2018-04-13T12:41:11.853Z,13.17
2018-04-13T12:42:11.813Z,13.15
2018-04-13T12:43:11.809Z,13.30
2018-04-13T12:44:11.801Z,13.25
2018-04-13T12:45:12.250Z,13.29
2018-04-13T12:46:11.808Z,13.21
2018-04-13T12:47:11.833Z,13.09
2018-04-13T12:48:11.804Z,13.17
2018-04-13T12:49:11.794Z,13.24
2018-04-13T12:50:11.805Z,13.24
2018-04-13T12:51:11.851Z,13.14
2018-04-13T12:52:11.784Z,13.00
2018-04-13T12:53:11.878Z,13.22
2018-04-13T12:54:11.785Z,13.09
2018-04-13T12:55:12.044Z,12.89
2018-04-13T12:56:11.779Z,13.00
2018-04-13T12:57:11.876Z,12.97
2018-04-13T12:58:11.924Z,12.99
2018-04-13T12:59:11.821Z,13.18
2018-04-13T13:00:21.556Z,13.07
2018-04-13T13:02:06.518Z,13.17
2018-04-13T13:03:06.261Z,13.22
2018-04-13T13:04:06.225Z,12.97
2018-04-13T13:05:06.301Z,13.09
2018-04-13T13:06:06.213Z,13.03
2018-04-13T13:07:06.214Z,13.07
2018-04-13T13:08:06.217Z,13.03
2018-04-13T13:09:06.198Z,12.95
2018-04-13T13:10:06.351Z,12.97
2018-04-13T13:11:06.227Z,12.93
2018-04-13T13:12:06.224Z,12.85
2018-04-13T13:13:06.227Z,12.82
2018-04-13T13:14:06.190Z,12.96
2018-04-13T13:15:06.239Z,12.96
2018-04-13T13:16:06.191Z,12.99
2018-04-13T13:17:06.183Z,12.99
2018-04-13T13:18:06.182Z,12.96
2018-04-13T13:19:06.192Z,13.04
2018-04-13T13:20:06.203Z,12.99
2018-04-13T13:21:06.180Z,13.09
2018-04-13T13:22:06.190Z,12.89
2018-04-13T13:23:06.244Z,12.97
2018-04-13T13:24:06.172Z,12.96
2018-04-13T13:25:06.206Z,12.99
2018-04-13T13:26:06.164Z,12.70
2018-04-13T13:27:06.174Z,12.96
2018-04-13T13:28:06.161Z,12.84
2018-04-13T13:29:06.160Z,12.85
2018-04-13T13:30:06.160Z,12.99
2018-04-13T13:31:06.199Z,12.82
2018-04-13T13:32:06.152Z,12.79
2018-04-13T13:33:06.155Z,12.74
2018-04-13T13:34:06.183Z,12.66
2018-04-13T13:35:06.162Z,12.84
2018-04-13T13:36:14.855Z,13.04
2018-04-13T13:37:59.605Z,12.87
2018-04-13T13:38:59.559Z,13.12
2018-04-13T13:39:59.550Z,13.24
2018-04-13T13:40:59.555Z,13.02
2018-04-13T13:41:59.552Z,12.95
2018-04-13T13:42:59.597Z,13.04
2018-04-13T13:43:59.599Z,12.97
2018-04-13T13:44:59.557Z,12.99
2018-04-13T13:45:59.580Z,12.99
2018-04-13T13:46:59.724Z,12.93
2018-04-13T13:47:59.536Z,12.95
2018-04-13T13:48:59.553Z,13.12
2018-04-13T13:49:59.580Z,13.12
2018-04-13T13:50:59.563Z,13.18
2018-04-13T13:51:59.634Z,13.17
2018-04-13T13:52:59.527Z,12.96
2018-04-13T13:53:59.606Z,12.95
2018-04-13T13:54:59.541Z,12.88
2018-04-13T13:55:59.590Z,12.93
2018-04-13T13:56:59.546Z,12.96
2018-04-13T13:57:59.522Z,12.96
2018-04-13T13:58:59.577Z,12.92
2018-04-13T13:59:59.703Z,12.77
2018-04-13T14:00:59.532Z,12.97
2018-04-13T14:01:59.528Z,12.97
2018-04-13T14:02:59.630Z,12.96
2018-04-13T14:03:59.593Z,13.11
2018-04-13T14:04:59.565Z,13.09
2018-04-13T14:05:59.512Z,13.02
2018-04-13T14:06:59.535Z,12.85
2018-04-13T14:07:59.535Z,12.78
2018-04-13T14:08:59.531Z,12.96
2018-04-13T14:09:59.532Z,12.85
2018-04-13T14:10:59.508Z,12.93
2018-04-13T14:11:59.544Z,13.02
2018-04-13T14:12:59.524Z,12.95
2018-04-13T14:13:59.515Z,12.81
2018-04-13T14:14:59.543Z,12.70
2018-04-13T14:15:59.576Z,12.85
2018-04-13T14:16:59.491Z,12.95
2018-04-13T14:17:59.530Z,12.92
2018-04-13T14:18:59.491Z,12.92
2018-04-13T14:19:59.512Z,12.92
2018-04-13T14:20:59.620Z,12.95
2018-04-13T14:21:59.582Z,12.88
2018-04-13T14:22:59.473Z,12.95
2018-04-13T14:23:59.468Z,12.81
2018-04-13T14:24:59.558Z,12.81
2018-04-13T14:25:59.479Z,12.99
2018-04-13T14:26:59.554Z,12.97
2018-04-13T14:27:59.465Z,12.85
2018-04-13T14:28:59.505Z,12.99
2018-04-13T14:29:59.473Z,12.75
2018-04-13T14:30:59.516Z,12.84
2018-04-13T14:31:59.485Z,12.84
2018-04-13T14:32:59.533Z,12.79
2018-04-13T14:33:59.466Z,12.92
2018-04-13T14:34:59.448Z,13.09
2018-04-13T14:36:00.052Z,13.03
2018-04-13T14:36:59.504Z,12.97
2018-04-13T14:37:59.476Z,12.99
2018-04-13T14:38:59.460Z,13.15
2018-04-13T14:39:59.477Z,13.14
2018-04-13T14:40:59.499Z,13.15
2018-04-13T14:41:59.485Z,13.18
2018-04-13T14:42:59.514Z,13.30
2018-04-13T14:43:59.464Z,13.17
2018-04-13T14:44:59.440Z,13.21
2018-04-13T14:45:59.488Z,13.18
2018-04-13T14:46:59.458Z,13.25
2018-04-13T14:47:59.431Z,13.24
2018-04-13T14:48:59.512Z,13.06
2018-04-13T14:49:59.432Z,13.04
2018-04-13T14:50:59.439Z,12.99
2018-04-13T14:51:59.453Z,13.17
2018-04-13T14:52:59.541Z,13.18
2018-04-13T14:53:59.530Z,13.22
2018-04-13T14:54:59.445Z,13.36
2018-04-13T14:55:59.665Z,13.30
2018-04-13T14:56:59.406Z,13.15
2018-04-13T14:57:59.402Z,13.11
2018-04-13T14:58:59.466Z,13.06
2018-04-13T14:59:59.406Z,13.09
2018-04-13T15:00:59.412Z,13.27
2018-04-13T15:01:59.491Z,13.25
2018-04-13T15:02:59.539Z,13.40
2018-04-13T15:03:59.411Z,13.41
2018-04-13T15:04:59.444Z,13.32
2018-04-13T15:05:59.452Z,13.30
2018-04-13T15:06:59.546Z,13.33
2018-04-13T15:07:59.471Z,13.40
2018-04-13T15:08:59.525Z,13.36
2018-04-13T15:09:59.381Z,13.33
2018-04-13T15:10:59.438Z,13.32
2018-04-13T15:11:59.387Z,13.47
2018-04-13T15:12:59.429Z,13.55
2018-04-13T15:13:59.392Z,13.62
2018-04-13T15:14:59.377Z,13.62
2018-04-13T15:15:59.614Z,13.44
2018-04-13T15:16:59.436Z,13.46
2018-04-13T15:17:59.578Z,13.46
2018-04-13T15:19:07.628Z,13.46
2018-04-13T15:20:52.904Z,13.61
2018-04-13T15:21:52.820Z,13.65
2018-04-13T15:22:52.773Z,13.67
2018-04-13T15:23:52.778Z,13.59
2018-04-13T15:24:52.773Z,13.62
2018-04-13T15:25:52.786Z,13.63
2018-04-13T15:26:53.006Z,13.62
2018-04-13T15:27:52.779Z,13.65
2018-04-13T15:28:52.772Z,13.62
2018-04-13T15:29:52.763Z,13.67
2018-04-13T15:30:52.772Z,13.79
2018-04-13T15:31:52.776Z,13.70
2018-04-13T15:32:52.782Z,13.63
2018-04-13T15:33:52.751Z,13.63
2018-04-13T15:34:52.809Z,13.73
2018-04-13T15:35:52.799Z,13.77
2018-04-13T15:36:52.830Z,13.74
2018-04-13T15:37:52.869Z,13.87
2018-04-13T15:38:52.752Z,13.94
2018-04-13T15:39:52.827Z,13.91
2018-04-13T15:40:52.761Z,13.83
2018-04-13T15:41:52.757Z,14.01
2018-04-13T15:42:52.750Z,13.89
2018-04-13T15:43:52.746Z,13.89
2018-04-13T15:44:52.750Z,13.88
2018-04-13T15:45:52.800Z,13.87
2018-04-13T15:46:52.756Z,13.84
2018-04-13T15:47:53.170Z,13.70
2018-04-13T15:48:52.902Z,13.81
2018-04-13T15:49:52.766Z,13.91
2018-04-13T15:50:52.744Z,13.81
2018-04-13T15:51:52.760Z,13.73
2018-04-13T15:52:52.814Z,13.83
2018-04-13T15:53:52.767Z,13.80
2018-04-13T15:54:52.757Z,13.84
2018-04-13T15:55:52.733Z,13.91
2018-04-13T15:56:52.780Z,13.84
2018-04-13T15:57:52.746Z,13.84
2018-04-13T15:58:52.737Z,13.91
2018-04-13T15:59:52.737Z,13.88
2018-04-13T16:00:52.748Z,13.83
2018-04-13T16:01:52.737Z,13.84
2018-04-13T16:02:52.734Z,13.83
2018-04-13T16:03:52.754Z,13.88
2018-04-13T16:04:52.750Z,13.95
2018-04-13T16:05:52.744Z,13.71
2018-04-13T16:06:52.724Z,13.88
2018-04-13T16:07:52.759Z,13.79
2018-04-13T16:08:52.758Z,13.91
2018-04-13T16:09:52.722Z,13.92
2018-04-13T16:10:52.721Z,13.89
2018-04-13T16:11:52.718Z,13.95
2018-04-13T16:12:52.737Z,14.01
2018-04-13T16:13:52.757Z,14.01
2018-04-13T16:14:52.722Z,13.87
2018-04-13T16:15:52.721Z,13.91
2018-04-13T16:16:52.721Z,13.83
2018-04-13T16:17:52.728Z,13.87
2018-04-13T16:18:52.811Z,13.87
2018-04-13T16:19:52.719Z,13.96
2018-04-13T16:20:52.751Z,13.81
2018-04-13T16:21:52.718Z,13.94
2018-04-13T16:22:52.720Z,13.89
2018-04-13T16:23:52.807Z,13.84
2018-04-13T16:24:52.719Z,13.83
2018-04-13T16:25:52.733Z,13.84
2018-04-13T16:26:52.702Z,13.87
2018-04-13T16:27:52.703Z,13.87
2018-04-13T16:28:52.701Z,13.99
2018-04-13T16:29:52.772Z,13.88